createdAt,value
2022-09-24T00:01:26.394Z,9.77
2022-09-24T00:03:56.026Z,8.07
2022-09-24T00:06:23.742Z,12.40
2022-09-24T00:08:52.432Z,8.87
2022-09-24T00:11:21.843Z,10.63
2022-09-24T00:13:50.205Z,9.93
2022-09-24T00:16:18.887Z,13.10
2022-09-24T00:18:45.689Z,9.87
2022-09-24T00:21:24.504Z,12.20
2022-09-24T00:23:53.456Z,14.53
2022-09-24T00:26:39.712Z,9.90
2022-09-24T00:29:08.123Z,12.23
2022-09-24T00:31:35.779Z,10.77
2022-09-24T00:34:02.982Z,10.77
2022-09-24T00:36:30.024Z,12.73
2022-09-24T00:38:59.085Z,16.23
2022-09-24T00:41:28.984Z,10.57
2022-09-24T00:43:56.454Z,11.07
2022-09-24T00:46:43.217Z,12.30
2022-09-24T00:49:19.511Z,10.83
2022-09-24T00:51:50.339Z,10.27
2022-09-24T00:54:24.779Z,11.77
2022-09-24T00:56:53.950Z,11.73
2022-09-24T00:59:24.000Z,11.50
2022-09-24T01:01:54.013Z,11.67
2022-09-24T01:04:21.946Z,12.97
2022-09-24T01:06:50.144Z,12.20
2022-09-24T01:09:19.148Z,12.10
2022-09-24T01:11:58.312Z,14.53
2022-09-24T01:14:50.143Z,15.33
2022-09-24T01:17:46.313Z,14.30
2022-09-24T01:20:37.891Z,13.20
2022-09-24T01:23:32.361Z,12.00
2022-09-24T01:26:38.473Z,12.37
2022-09-24T01:29:33.165Z,10.73
2022-09-24T01:32:11.599Z,14.97
2022-09-24T01:34:43.712Z,11.30
2022-09-24T01:37:14.842Z,11.37
2022-09-24T01:39:45.404Z,10.37
2022-09-24T01:42:13.670Z,12.33
2022-09-24T01:44:44.353Z,9.30
2022-09-24T01:47:18.613Z,12.70
2022-09-24T01:49:46.078Z,12.77
2022-09-24T01:52:18.747Z,11.50
2022-09-24T01:54:52.043Z,12.47
2022-09-24T01:57:24.209Z,14.07
2022-09-24T02:00:12.082Z,10.70
2022-09-24T02:02:54.785Z,14.63
2022-09-24T02:05:38.966Z,11.13
2022-09-24T02:08:13.197Z,12.43
2022-09-24T02:10:57.803Z,11.77
2022-09-24T02:13:29.034Z,12.93
2022-09-24T02:16:00.159Z,11.87
2022-09-24T02:18:34.708Z,10.00
2022-09-24T02:21:06.282Z,12.70
2022-09-24T02:23:37.198Z,13.43
2022-09-24T02:26:05.579Z,10.37
2022-09-24T02:28:33.506Z,11.10
2022-09-24T02:31:12.415Z,10.40
2022-09-24T02:34:00.756Z,13.00
2022-09-24T02:36:29.207Z,10.23
2022-09-24T02:38:56.345Z,13.60
2022-09-24T02:41:25.054Z,12.70
2022-09-24T02:43:52.860Z,10.77
2022-09-24T02:46:20.230Z,13.57
2022-09-24T02:48:47.001Z,10.37
2022-09-24T02:51:13.838Z,13.47
2022-09-24T02:53:40.449Z,12.10
2022-09-24T02:56:08.953Z,10.07
2022-09-24T02:58:37.624Z,11.30
2022-09-24T03:01:05.341Z,12.50
2022-09-24T03:03:32.915Z,12.23
2022-09-24T03:05:59.869Z,10.60
2022-09-24T03:08:27.288Z,14.30
2022-09-24T03:10:56.248Z,12.97
2022-09-24T03:13:23.642Z,11.60
2022-09-24T03:15:50.642Z,12.37
2022-09-24T03:18:17.499Z,14.83
2022-09-24T03:20:44.431Z,11.10
2022-09-24T03:23:11.446Z,13.80
2022-09-24T03:25:38.759Z,14.83
2022-09-24T03:28:05.603Z,13.53
2022-09-24T03:30:50.715Z,16.67
2022-09-24T03:33:17.484Z,11.93
2022-09-24T03:35:44.278Z,15.07
2022-09-24T03:38:11.180Z,13.43
2022-09-24T03:40:37.934Z,15.23
2022-09-24T03:43:04.773Z,11.87
2022-09-24T03:45:31.701Z,11.77
2022-09-24T03:47:58.523Z,13.43
2022-09-24T03:50:25.796Z,12.30
2022-09-24T03:52:52.496Z,15.20
2022-09-24T03:55:19.460Z,13.37
2022-09-24T03:57:46.638Z,17.13
2022-09-24T04:00:13.944Z,14.70
2022-09-24T04:02:41.142Z,15.47
2022-09-24T04:05:08.330Z,13.47
2022-09-24T04:07:35.115Z,16.37
2022-09-24T04:10:01.980Z,13.23
2022-09-24T04:12:29.674Z,17.00
2022-09-24T04:14:56.415Z,15.27
2022-09-24T04:17:23.291Z,18.93
2022-09-24T04:19:54.068Z,16.70
2022-09-24T04:22:21.443Z,13.83
2022-09-24T04:24:48.183Z,17.17
2022-09-24T04:27:15.354Z,14.93
2022-09-24T04:29:42.013Z,17.10
2022-09-24T04:32:08.906Z,16.47
2022-09-24T04:34:35.818Z,17.77
2022-09-24T04:37:02.595Z,18.47
2022-09-24T04:39:29.393Z,19.80
2022-09-24T04:41:56.195Z,17.13
2022-09-24T04:44:23.686Z,20.17
2022-09-24T04:46:50.779Z,20.00
2022-09-24T04:49:17.564Z,18.67
2022-09-24T04:51:44.462Z,16.73
2022-09-24T04:54:11.337Z,16.07
2022-09-24T04:56:38.343Z,18.43
2022-09-24T04:59:05.146Z,19.23
2022-09-24T05:01:32.106Z,24.20
2022-09-24T05:03:59.104Z,20.27
2022-09-24T05:06:25.848Z,18.13
2022-09-24T05:08:52.927Z,22.40
2022-09-24T05:11:19.984Z,19.10
2022-09-24T05:13:46.737Z,19.57
2022-09-24T05:16:13.644Z,27.63
2022-09-24T05:18:42.576Z,24.60
2022-09-24T05:21:09.670Z,20.40
2022-09-24T05:23:36.492Z,22.23
2022-09-24T05:26:22.014Z,25.43
2022-09-24T05:28:48.924Z,21.13
2022-09-24T05:31:15.813Z,21.90
2022-09-24T05:33:42.840Z,22.17
2022-09-24T05:36:09.775Z,19.73
2022-09-24T05:38:38.838Z,20.80
2022-09-24T05:41:08.379Z,21.50
2022-09-24T05:43:35.183Z,21.03
2022-09-24T05:46:02.240Z,21.70
2022-09-24T05:48:29.217Z,23.17
2022-09-24T05:50:56.481Z,20.53
2022-09-24T05:53:23.901Z,22.70
2022-09-24T05:55:50.930Z,22.83
2022-09-24T05:58:18.252Z,28.47
2022-09-24T06:00:47.697Z,24.60
2022-09-24T06:03:16.759Z,19.13
2022-09-24T06:05:49.133Z,19.57
2022-09-24T06:08:17.483Z,23.80
2022-09-24T06:10:48.117Z,21.83
2022-09-24T06:13:18.546Z,21.83
2022-09-24T06:15:45.508Z,22.80
2022-09-24T06:18:12.678Z,28.87
2022-09-24T06:20:40.469Z,24.50
2022-09-24T06:23:07.909Z,22.70
2022-09-24T06:25:34.925Z,22.27
2022-09-24T06:28:04.048Z,25.20
2022-09-24T06:30:38.139Z,25.30
2022-09-24T06:33:07.847Z,26.63
2022-09-24T06:35:36.835Z,30.57
2022-09-24T06:38:04.935Z,31.57
2022-09-24T06:40:36.485Z,33.30
2022-09-24T06:43:14.345Z,36.73
2022-09-24T06:45:43.223Z,34.03
2022-09-24T06:48:12.337Z,32.67
2022-09-24T06:50:44.694Z,28.50
2022-09-24T06:53:12.287Z,32.93
2022-09-24T06:55:39.531Z,30.23
2022-09-24T06:58:12.475Z,33.63
2022-09-24T07:00:40.691Z,34.60
2022-09-24T07:03:08.239Z,33.17
2022-09-24T07:05:39.550Z,33.43
2022-09-24T07:08:09.549Z,31.40
2022-09-24T07:10:36.346Z,32.73
2022-09-24T07:13:03.332Z,31.17
2022-09-24T07:15:30.192Z,32.63
2022-09-24T07:17:57.320Z,34.43
2022-09-24T07:20:28.285Z,34.93
2022-09-24T07:22:56.060Z,34.13
2022-09-24T07:25:22.859Z,34.70
2022-09-24T07:27:49.693Z,32.07
2022-09-24T07:30:16.942Z,38.03
2022-09-24T07:32:43.900Z,38.23
2022-09-24T07:35:10.692Z,40.53
2022-09-24T07:37:37.453Z,40.00
2022-09-24T07:40:04.571Z,40.60
2022-09-24T07:42:31.412Z,33.03
2022-09-24T07:45:01.311Z,39.17
2022-09-24T07:47:28.067Z,35.97
2022-09-24T07:49:54.794Z,36.63
2022-09-24T07:52:22.189Z,35.93
2022-09-24T07:54:49.669Z,38.80
2022-09-24T07:57:16.391Z,37.73
2022-09-24T07:59:44.886Z,36.77
2022-09-24T08:02:17.088Z,39.57
2022-09-24T08:04:44.677Z,36.07
2022-09-24T08:07:12.900Z,37.83
2022-09-24T08:09:40.033Z,39.10
2022-09-24T08:12:07.588Z,35.60
2022-09-24T08:14:34.352Z,35.10
2022-09-24T08:17:01.938Z,36.90
2022-09-24T08:19:31.032Z,38.20
2022-09-24T08:21:58.513Z,34.70
2022-09-24T08:24:25.985Z,31.80
2022-09-24T08:26:52.765Z,31.43
2022-09-24T08:29:19.623Z,32.43
2022-09-24T08:31:46.413Z,27.20
2022-09-24T08:34:15.271Z,23.87
2022-09-24T08:36:43.281Z,25.47
2022-09-24T08:39:11.788Z,27.20
2022-09-24T08:41:50.605Z,25.63
2022-09-24T08:44:50.428Z,24.80
2022-09-24T08:47:43.402Z,28.97
2022-09-24T08:50:23.305Z,26.47
2022-09-24T08:52:59.722Z,25.93
2022-09-24T08:55:44.413Z,26.00
2022-09-24T08:58:29.079Z,29.07
2022-09-24T09:01:15.245Z,25.40
2022-09-24T09:04:03.702Z,26.87
2022-09-24T09:07:07.594Z,30.40
2022-09-24T09:09:46.629Z,24.57
2022-09-24T09:12:19.942Z,27.30
2022-09-24T09:14:56.138Z,27.60
2022-09-24T09:17:43.050Z,26.77
2022-09-24T09:20:35.313Z,29.67
2022-09-24T09:23:18.229Z,29.73
2022-09-24T09:25:53.481Z,27.47
2022-09-24T09:28:21.199Z,28.03
2022-09-24T09:30:54.277Z,27.50
2022-09-24T09:33:40.156Z,26.87
2022-09-24T09:36:26.134Z,24.60
2022-09-24T09:39:13.390Z,26.70
2022-09-24T09:42:04.734Z,22.70
2022-09-24T09:44:40.573Z,28.40
2022-09-24T09:47:37.884Z,28.83
2022-09-24T09:50:12.780Z,25.67
2022-09-24T09:52:40.320Z,28.93
2022-09-24T09:55:08.247Z,31.80
2022-09-24T09:57:36.870Z,28.23
2022-09-24T10:00:05.387Z,32.50
2022-09-24T10:02:35.468Z,27.10
2022-09-24T10:05:04.591Z,26.63
2022-09-24T10:07:32.930Z,30.90
2022-09-24T10:10:25.323Z,39.10
2022-09-24T10:16:17.466Z,36.30
2022-09-24T10:18:49.339Z,36.33
2022-09-24T10:21:35.201Z,34.83
2022-09-24T10:24:05.519Z,33.43
2022-09-24T10:26:44.697Z,33.67
2022-09-24T10:29:37.746Z,31.50
2022-09-24T10:32:07.908Z,37.90
2022-09-24T10:34:35.657Z,34.87
2022-09-24T10:37:13.708Z,26.63
2022-09-24T10:39:41.182Z,24.30
2022-09-24T10:42:26.131Z,22.43
2022-09-24T10:44:54.525Z,22.33
2022-09-24T10:47:44.797Z,22.60
2022-09-24T10:50:32.224Z,24.17
2022-09-24T10:53:13.877Z,20.70
2022-09-24T10:56:13.267Z,23.13
2022-09-24T10:59:08.264Z,24.90
2022-09-24T11:01:58.301Z,24.03
2022-09-24T11:04:44.823Z,20.03
2022-09-24T11:07:44.838Z,26.70
2022-09-24T11:10:42.330Z,29.60
2022-09-24T11:13:21.682Z,24.07
2022-09-24T11:15:53.598Z,21.00
2022-09-24T11:19:01.724Z,18.37
2022-09-24T11:22:11.570Z,18.53
2022-09-24T11:24:55.518Z,19.07
2022-09-24T11:27:28.521Z,19.10
2022-09-24T11:30:04.674Z,20.57
2022-09-24T11:32:57.981Z,17.23
2022-09-24T11:35:42.616Z,13.57
2022-09-24T11:38:10.650Z,16.20
2022-09-24T11:40:59.107Z,13.00
2022-09-24T11:43:48.783Z,18.27
2022-09-24T11:46:31.089Z,14.63
2022-09-24T11:49:12.302Z,15.00
2022-09-24T11:51:59.179Z,13.43
2022-09-24T11:54:56.843Z,10.37
2022-09-24T11:57:40.481Z,9.13
2022-09-24T12:00:32.411Z,12.07
2022-09-24T12:03:07.847Z,10.43
2022-09-24T12:05:44.525Z,12.70
2022-09-24T12:08:27.853Z,11.77
2022-09-24T12:11:06.926Z,6.70
2022-09-24T12:13:41.964Z,10.93
2022-09-24T12:16:13.682Z,12.17
2022-09-24T12:18:54.753Z,8.07
2022-09-24T12:21:33.299Z,9.00
2022-09-24T12:24:13.747Z,7.40
2022-09-24T12:26:42.883Z,7.07
2022-09-24T12:29:55.701Z,6.07
2022-09-24T12:32:53.065Z,10.23
2022-09-24T12:35:28.774Z,7.07
2022-09-24T12:38:04.976Z,9.07
2022-09-24T12:40:56.221Z,5.93
2022-09-24T12:43:31.179Z,6.37
2022-09-24T12:46:06.220Z,8.20
2022-09-24T12:48:37.486Z,7.73
2022-09-24T12:51:07.387Z,6.37
2022-09-24T12:53:40.687Z,6.37
2022-09-24T12:56:09.803Z,6.77
2022-09-24T12:58:38.716Z,7.87
2022-09-24T13:01:24.377Z,7.90
2022-09-24T13:04:16.595Z,6.20
2022-09-24T13:06:47.946Z,6.13
2022-09-24T13:09:26.766Z,6.00
2022-09-24T13:12:32.401Z,6.47
2022-09-24T13:15:06.731Z,5.17
2022-09-24T13:17:35.671Z,6.40
2022-09-24T13:20:08.443Z,5.30
2022-09-24T13:22:37.745Z,5.07
2022-09-24T13:25:07.937Z,5.47
2022-09-24T13:27:41.912Z,4.87
2022-09-24T13:30:09.647Z,5.03
2022-09-24T13:32:46.929Z,5.60
2022-09-24T13:35:24.393Z,4.77
2022-09-24T13:37:58.383Z,5.00
2022-09-24T13:40:29.076Z,5.13
2022-09-24T13:43:11.893Z,4.93
2022-09-24T13:45:43.871Z,4.60
2022-09-24T13:48:38.067Z,5.23
2022-09-24T13:51:11.915Z,7.53
2022-09-24T13:53:52.134Z,6.53
2022-09-24T13:56:24.095Z,5.13
2022-09-24T13:59:04.768Z,5.27
2022-09-24T14:01:38.927Z,5.80
2022-09-24T14:04:21.238Z,6.77
2022-09-24T14:06:54.751Z,4.67
2022-09-24T14:09:36.420Z,5.23
2022-09-24T14:12:22.112Z,5.17
2022-09-24T14:14:58.249Z,5.63
2022-09-24T14:17:26.419Z,5.57
2022-09-24T14:19:57.415Z,5.57
2022-09-24T14:22:32.414Z,6.13
2022-09-24T14:25:31.739Z,5.80
2022-09-24T14:28:01.263Z,6.37
2022-09-24T14:30:30.648Z,7.80
2022-09-24T14:33:07.373Z,5.83
2022-09-24T14:35:37.171Z,6.17
2022-09-24T14:38:24.649Z,6.23
2022-09-24T14:41:05.400Z,6.33
2022-09-24T14:43:41.856Z,6.37
2022-09-24T14:46:17.569Z,8.67
2022-09-24T14:48:44.973Z,10.57
2022-09-24T14:51:28.779Z,6.80
2022-09-24T14:54:06.504Z,5.93
2022-09-24T14:56:35.201Z,6.93
2022-09-24T14:59:02.162Z,9.03
2022-09-24T15:01:33.983Z,6.50
2022-09-24T15:04:08.296Z,7.87
2022-09-24T15:06:37.811Z,5.40
2022-09-24T15:09:16.042Z,6.73
2022-09-24T15:11:43.873Z,7.27
2022-09-24T15:14:16.639Z,7.93
2022-09-24T15:16:47.103Z,7.50
2022-09-24T15:19:27.673Z,7.93
2022-09-24T15:21:59.006Z,8.90
2022-09-24T15:24:26.083Z,9.93
2022-09-24T15:27:05.932Z,8.10
2022-09-24T15:29:33.755Z,8.57
2022-09-24T15:32:02.321Z,9.33
2022-09-24T15:34:31.628Z,10.73
2022-09-24T15:37:00.864Z,8.70
2022-09-24T15:39:29.888Z,9.60
2022-09-24T15:41:58.217Z,10.47
2022-09-24T15:44:33.617Z,9.70
2022-09-24T15:47:03.232Z,10.20
2022-09-24T15:49:32.573Z,11.43
2022-09-24T15:52:07.462Z,10.27
2022-09-24T15:54:35.556Z,10.13
2022-09-24T15:57:03.408Z,11.17
2022-09-24T15:59:31.228Z,9.87
2022-09-24T16:02:03.364Z,10.00
2022-09-24T16:04:31.306Z,8.70
2022-09-24T16:06:59.430Z,9.03
2022-09-24T16:09:27.586Z,8.90
2022-09-24T16:11:57.808Z,10.67
2022-09-24T16:14:29.974Z,11.20
2022-09-24T16:16:58.919Z,10.13
2022-09-24T16:19:27.658Z,11.60
2022-09-24T16:21:56.350Z,9.07
2022-09-24T16:24:23.231Z,7.80
2022-09-24T16:26:51.163Z,9.07
2022-09-24T16:29:19.953Z,9.80
2022-09-24T16:31:48.235Z,9.87
2022-09-24T16:34:16.693Z,10.60
2022-09-24T16:36:44.660Z,9.10
2022-09-24T16:39:17.461Z,10.67
2022-09-24T16:41:49.197Z,10.20
2022-09-24T16:44:23.074Z,11.70
2022-09-24T16:46:51.190Z,12.87
2022-09-24T16:49:19.741Z,12.77
2022-09-24T16:51:47.495Z,12.77
2022-09-24T16:54:17.927Z,14.70
2022-09-24T16:56:45.825Z,13.17
2022-09-24T16:59:13.842Z,13.60
2022-09-24T17:01:42.721Z,12.57
2022-09-24T17:04:12.741Z,14.80
2022-09-24T17:06:40.546Z,15.40
2022-09-24T17:09:28.462Z,13.07
2022-09-24T17:11:57.296Z,14.43
2022-09-24T17:14:27.092Z,15.60
2022-09-24T17:16:57.244Z,16.57
2022-09-24T17:19:24.611Z,16.43
2022-09-24T17:21:52.355Z,14.17
2022-09-24T17:24:21.968Z,19.00
2022-09-24T17:26:50.345Z,17.33
2022-09-24T17:29:22.455Z,18.00
2022-09-24T17:31:51.271Z,17.77
2022-09-24T17:34:19.109Z,16.77
2022-09-24T17:36:47.401Z,17.63
2022-09-24T17:39:15.167Z,20.43
2022-09-24T17:41:42.803Z,20.43
2022-09-24T17:44:13.288Z,19.00
2022-09-24T17:46:44.181Z,18.87
2022-09-24T17:49:12.326Z,21.90
2022-09-24T17:51:39.852Z,22.23
2022-09-24T17:54:09.824Z,23.00
2022-09-24T17:56:40.657Z,24.23
2022-09-24T17:59:13.635Z,21.53
2022-09-24T18:01:43.790Z,25.73
2022-09-24T18:04:20.590Z,26.27
2022-09-24T18:06:49.050Z,25.33
2022-09-24T18:09:18.335Z,24.20
2022-09-24T18:11:51.614Z,25.37
2022-09-24T18:14:21.538Z,28.53
2022-09-24T18:16:49.606Z,30.63
2022-09-24T18:19:18.207Z,28.10
2022-09-24T18:22:08.309Z,31.60
2022-09-24T18:24:37.090Z,29.13
2022-09-24T18:27:07.515Z,27.10
2022-09-24T18:29:35.235Z,27.63
2022-09-24T18:32:04.641Z,27.07
2022-09-24T18:34:34.364Z,28.03
2022-09-24T18:37:01.857Z,29.17
2022-09-24T18:39:29.731Z,32.20
2022-09-24T18:41:57.316Z,29.70
2022-09-24T18:44:24.122Z,31.67
2022-09-24T18:46:52.610Z,33.60
2022-09-24T18:49:19.696Z,29.73
2022-09-24T18:51:47.671Z,32.33
2022-09-24T18:54:18.631Z,31.80
2022-09-24T18:56:50.698Z,32.70
2022-09-24T18:59:38.760Z,34.17
2022-09-24T19:02:22.022Z,37.00
2022-09-24T19:04:51.261Z,34.87
2022-09-24T19:07:19.080Z,42.47
2022-09-24T19:09:46.882Z,40.40
2022-09-24T19:12:19.461Z,37.07
2022-09-24T19:14:47.094Z,40.00
2022-09-24T19:17:16.260Z,44.60
2022-09-24T19:19:52.111Z,39.70
2022-09-24T19:22:20.359Z,42.83
2022-09-24T19:24:49.720Z,46.87
2022-09-24T19:27:17.438Z,47.03
2022-09-24T19:29:45.594Z,44.23
2022-09-24T19:32:15.447Z,54.30
2022-09-24T19:34:43.334Z,48.00
2022-09-24T19:37:11.729Z,49.73
2022-09-24T19:39:42.514Z,53.60
2022-09-24T19:42:10.630Z,56.23
2022-09-24T19:44:40.202Z,61.13
2022-09-24T19:47:10.930Z,58.07
2022-09-24T19:49:39.715Z,60.87
2022-09-24T19:52:07.612Z,63.70
2022-09-24T19:54:35.077Z,72.30
2022-09-24T19:57:02.770Z,69.50
2022-09-24T19:59:32.349Z,69.27
2022-09-24T20:02:00.109Z,69.37
2022-09-24T20:04:28.382Z,76.43
2022-09-24T20:06:56.774Z,65.53
2022-09-24T20:09:24.509Z,69.33
2022-09-24T20:11:52.487Z,70.13
2022-09-24T20:14:21.238Z,72.67
2022-09-24T20:16:48.873Z,67.50
2022-09-24T20:19:17.128Z,61.37
2022-09-24T20:21:44.070Z,63.83
2022-09-24T20:24:17.199Z,70.40
2022-09-24T20:27:04.239Z,69.70
2022-09-24T20:29:32.980Z,71.17
2022-09-24T20:32:00.978Z,61.50
2022-09-24T20:34:33.704Z,70.43
2022-09-24T20:37:03.205Z,67.80
2022-09-24T20:39:32.271Z,67.83
2022-09-24T20:42:06.371Z,61.30
2022-09-24T20:44:35.697Z,66.40
2022-09-24T20:47:04.874Z,66.87
2022-09-24T20:49:33.830Z,68.83
2022-09-24T20:52:03.406Z,70.60
2022-09-24T20:54:34.091Z,78.77
2022-09-24T20:57:03.956Z,74.37
2022-09-24T20:59:32.016Z,78.03
2022-09-24T21:02:04.239Z,69.97
2022-09-24T21:04:40.640Z,76.03
2022-09-24T21:07:10.124Z,77.57
2022-09-24T21:09:38.043Z,75.17
2022-09-24T21:12:08.361Z,83.17
2022-09-24T21:14:38.837Z,83.40
2022-09-24T21:17:08.833Z,81.53
2022-09-24T21:19:38.016Z,80.27
2022-09-24T21:22:08.045Z,78.63
2022-09-24T21:24:38.202Z,84.60
2022-09-24T21:27:07.678Z,82.37
2022-09-24T21:29:35.574Z,82.73
2022-09-24T21:32:03.465Z,77.47
2022-09-24T21:34:31.281Z,84.37
2022-09-24T21:36:58.631Z,84.67
2022-09-24T21:39:29.280Z,85.03
2022-09-24T21:41:59.648Z,84.17
2022-09-24T21:44:31.278Z,92.43
2022-09-24T21:46:59.542Z,81.67
2022-09-24T21:49:27.476Z,80.03
2022-09-24T21:51:57.136Z,83.83
2022-09-24T21:54:24.313Z,77.43
2022-09-24T21:56:54.579Z,73.87
2022-09-24T21:59:40.393Z,76.33
2022-09-24T22:02:10.409Z,67.53
2022-09-24T22:04:38.655Z,68.03
2022-09-24T22:07:07.551Z,68.53
2022-09-24T22:09:35.387Z,68.63
2022-09-24T22:12:04.865Z,66.47
2022-09-24T22:14:35.260Z,69.13
2022-09-24T22:17:04.620Z,68.63
2022-09-24T22:19:33.107Z,68.60
2022-09-24T22:22:00.809Z,60.13
2022-09-24T22:24:28.769Z,60.53
2022-09-24T22:26:57.823Z,62.47
2022-09-24T22:29:25.257Z,61.17
2022-09-24T22:31:53.320Z,61.27
2022-09-24T22:34:39.236Z,61.40
2022-09-24T22:37:07.715Z,66.67
2022-09-24T22:39:36.050Z,60.67
2022-09-24T22:42:03.532Z,57.90
2022-09-24T22:44:32.274Z,59.70
2022-09-24T22:46:59.064Z,53.90
2022-09-24T22:49:27.203Z,56.67
2022-09-24T22:51:54.861Z,56.83
2022-09-24T22:54:21.877Z,58.87
2022-09-24T22:56:49.573Z,51.77
2022-09-24T22:59:17.821Z,53.93
2022-09-24T23:01:45.819Z,53.80
2022-09-24T23:04:15.152Z,54.20
2022-09-24T23:06:43.862Z,60.40
2022-09-24T23:09:11.669Z,64.63
2022-09-24T23:11:39.565Z,59.63
2022-09-24T23:14:12.192Z,62.67
2022-09-24T23:16:40.119Z,65.43
2022-09-24T23:19:12.986Z,63.07
2022-09-24T23:21:40.831Z,60.43
2022-09-24T23:24:14.125Z,60.80
2022-09-24T23:26:41.940Z,65.73
2022-09-24T23:29:10.706Z,71.97
2022-09-24T23:31:37.645Z,59.60
2022-09-24T23:34:07.709Z,60.33
2022-09-24T23:36:36.648Z,59.80
2022-09-24T23:39:04.780Z,57.40
2022-09-24T23:41:32.485Z,57.03
2022-09-24T23:44:00.372Z,57.70
2022-09-24T23:46:27.916Z,55.50
2022-09-24T23:48:56.541Z,52.90
2022-09-24T23:51:23.450Z,48.73
2022-09-24T23:53:50.847Z,51.00
2022-09-24T23:56:19.641Z,51.00
2022-09-24T23:58:47.132Z,53.20
